sensor_id;sensor_type;location;lat;lon;timestamp;temperature;humidity
41985;DHT22;28319;48.116;10.818;2023-04-06T00:01:10;1.80;99.90
41985;DHT22;28319;48.116;10.818;2023-04-06T00:06:14;1.70;99.60
41985;DHT22;28319;48.116;10.818;2023-04-06T00:11:16;1.80;99.60
41985;DHT22;28319;48.116;10.818;2023-04-06T00:16:20;1.70;99.50
41985;DHT22;28319;48.116;10.818;2023-04-06T00:21:23;1.60;99.60
41985;DHT22;28319;48.116;10.818;2023-04-06T00:26:26;1.40;99.90
41985;DHT22;28319;48.116;10.818;2023-04-06T00:31:28;1.40;99.90
41985;DHT22;28319;48.116;10.818;2023-04-06T00:36:32;1.40;99.90
41985;DHT22;28319;48.116;10.818;2023-04-06T00:41:34;1.40;99.90
41985;DHT22;28319;48.116;10.818;2023-04-06T00:46:36;1.40;99.90
41985;DHT22;28319;48.116;10.818;2023-04-06T00:51:40;1.40;99.90
41985;DHT22;28319;48.116;10.818;2023-04-06T00:56:42;1.40;99.90
41985;DHT22;28319;48.116;10.818;2023-04-06T01:01:45;1.30;99.90
41985;DHT22;28319;48.116;10.818;2023-04-06T01:06:48;1.10;99.90
41985;DHT22;28319;48.116;10.818;2023-04-06T01:11:52;0.80;99.90
41985;DHT22;28319;48.116;10.818;2023-04-06T01:16:57;0.80;99.90
41985;DHT22;28319;48.116;10.818;2023-04-06T01:22:03;0.80;99.90
41985;DHT22;28319;48.116;10.818;2023-04-06T01:27:07;0.80;99.90
41985;DHT22;28319;48.116;10.818;2023-04-06T01:32:10;0.80;99.90
41985;DHT22;28319;48.116;10.818;2023-04-06T01:37:13;0.80;99.90
41985;DHT22;28319;48.116;10.818;2023-04-06T01:42:16;0.70;99.90
41985;DHT22;28319;48.116;10.818;2023-04-06T01:47:18;0.70;99.90
41985;DHT22;28319;48.116;10.818;2023-04-06T01:52:21;0.40;99.90
41985;DHT22;28319;48.116;10.818;2023-04-06T01:57:24;0.50;99.90
41985;DHT22;28319;48.116;10.818;2023-04-06T02:02:26;0.50;99.90
41985;DHT22;28319;48.116;10.818;2023-04-06T02:07:28;0.50;99.90
41985;DHT22;28319;48.116;10.818;2023-04-06T02:12:32;0.50;99.90
41985;DHT22;28319;48.116;10.818;2023-04-06T02:17:34;0.50;99.90
41985;DHT22;28319;48.116;10.818;2023-04-06T02:22:39;0.40;99.90
41985;DHT22;28319;48.116;10.818;2023-04-06T02:27:42;0.20;99.90
41985;DHT22;28319;48.116;10.818;2023-04-06T02:32:44;0.20;99.90
41985;DHT22;28319;48.116;10.818;2023-04-06T02:37:48;0.30;99.90
41985;DHT22;28319;48.116;10.818;2023-04-06T02:42:52;0.30;99.90
41985;DHT22;28319;48.116;10.818;2023-04-06T02:47:54;0.30;99.90
41985;DHT22;28319;48.116;10.818;2023-04-06T02:52:56;0.20;99.90
41985;DHT22;28319;48.116;10.818;2023-04-06T02:58:00;0.20;99.90
41985;DHT22;28319;48.116;10.818;2023-04-06T03:03:02;0.30;99.90
41985;DHT22;28319;48.116;10.818;2023-04-06T03:08:04;0.20;99.90
41985;DHT22;28319;48.116;10.818;2023-04-06T03:13:08;0.10;99.90
41985;DHT22;28319;48.116;10.818;2023-04-06T03:18:10;0.10;99.90
41985;DHT22;28319;48.116;10.818;2023-04-06T03:23:12;0.10;99.90
41985;DHT22;28319;48.116;10.818;2023-04-06T03:28:23;0.10;99.90
41985;DHT22;28319;48.116;10.818;2023-04-06T03:33:25;0.10;99.90
41985;DHT22;28319;48.116;10.818;2023-04-06T03:38:29;0.00;99.90
41985;DHT22;28319;48.116;10.818;2023-04-06T03:43:32;0.00;99.90
41985;DHT22;28319;48.116;10.818;2023-04-06T03:48:34;0.10;99.90
41985;DHT22;28319;48.116;10.818;2023-04-06T03:53:37;0.00;99.90
41985;DHT22;28319;48.116;10.818;2023-04-06T03:58:40;0.00;99.90
41985;DHT22;28319;48.116;10.818;2023-04-06T04:03:42;0.00;99.90
41985;DHT22;28319;48.116;10.818;2023-04-06T04:08:45;-0.10;99.90
41985;DHT22;28319;48.116;10.818;2023-04-06T04:13:48;-0.10;99.90
41985;DHT22;28319;48.116;10.818;2023-04-06T04:18:51;-0.10;99.90
41985;DHT22;28319;48.116;10.818;2023-04-06T04:23:53;-0.10;99.90
41985;DHT22;28319;48.116;10.818;2023-04-06T04:28:57;-0.10;99.90
41985;DHT22;28319;48.116;10.818;2023-04-06T04:33:59;-0.20;99.90
41985;DHT22;28319;48.116;10.818;2023-04-06T04:39:02;-0.20;99.90
41985;DHT22;28319;48.116;10.818;2023-04-06T04:44:06;-0.20;99.90
41985;DHT22;28319;48.116;10.818;2023-04-06T04:49:08;-0.20;99.90
41985;DHT22;28319;48.116;10.818;2023-04-06T04:54:10;-0.30;99.90
41985;DHT22;28319;48.116;10.818;2023-04-06T04:59:14;-0.30;99.90
41985;DHT22;28319;48.116;10.818;2023-04-06T05:04:17;-0.30;99.90
41985;DHT22;28319;48.116;10.818;2023-04-06T05:09:20;-0.30;99.90
41985;DHT22;28319;48.116;10.818;2023-04-06T05:14:24;-0.30;99.90
41985;DHT22;28319;48.116;10.818;2023-04-06T05:19:26;-0.20;99.90
41985;DHT22;28319;48.116;10.818;2023-04-06T05:24:28;-0.10;99.90
41985;DHT22;28319;48.116;10.818;2023-04-06T05:29:33;-0.10;99.90
41985;DHT22;28319;48.116;10.818;2023-04-06T05:34:35;-0.10;99.90
41985;DHT22;28319;48.116;10.818;2023-04-06T05:39:37;0.00;99.90
41985;DHT22;28319;48.116;10.818;2023-04-06T05:44:41;0.00;99.90
41985;DHT22;28319;48.116;10.818;2023-04-06T05:49:44;0.00;99.90
41985;DHT22;28319;48.116;10.818;2023-04-06T05:54:46;0.00;99.90
41985;DHT22;28319;48.116;10.818;2023-04-06T05:59:49;0.10;99.90
41985;DHT22;28319;48.116;10.818;2023-04-06T06:04:51;0.20;99.90
41985;DHT22;28319;48.116;10.818;2023-04-06T06:09:56;0.20;99.90
41985;DHT22;28319;48.116;10.818;2023-04-06T06:15:01;0.40;99.90
41985;DHT22;28319;48.116;10.818;2023-04-06T06:20:03;0.50;99.90
41985;DHT22;28319;48.116;10.818;2023-04-06T06:25:07;0.60;99.90
41985;DHT22;28319;48.116;10.818;2023-04-06T06:30:11;0.60;99.90
41985;DHT22;28319;48.116;10.818;2023-04-06T06:35:13;0.60;99.90
41985;DHT22;28319;48.116;10.818;2023-04-06T06:40:16;0.70;99.90
41985;DHT22;28319;48.116;10.818;2023-04-06T06:45:20;0.80;99.90
41985;DHT22;28319;48.116;10.818;2023-04-06T06:50:22;0.90;99.90
41985;DHT22;28319;48.116;10.818;2023-04-06T06:55:24;0.90;99.90
41985;DHT22;28319;48.116;10.818;2023-04-06T07:00:28;1.00;99.90
41985;DHT22;28319;48.116;10.818;2023-04-06T07:05:30;1.10;99.90
41985;DHT22;28319;48.116;10.818;2023-04-06T07:10:32;1.20;99.90
41985;DHT22;28319;48.116;10.818;2023-04-06T07:15:37;1.30;99.90
41985;DHT22;28319;48.116;10.818;2023-04-06T07:20:39;1.40;99.90
41985;DHT22;28319;48.116;10.818;2023-04-06T07:25:41;1.60;99.90
41985;DHT22;28319;48.116;10.818;2023-04-06T07:30:45;1.80;99.90
41985;DHT22;28319;48.116;10.818;2023-04-06T07:35:47;2.00;99.90
41985;DHT22;28319;48.116;10.818;2023-04-06T07:40:52;2.10;99.90
41985;DHT22;28319;48.116;10.818;2023-04-06T07:45:56;2.30;99.90
41985;DHT22;28319;48.116;10.818;2023-04-06T07:51:04;2.50;99.90
41985;DHT22;28319;48.116;10.818;2023-04-06T07:56:07;2.70;99.90
41985;DHT22;28319;48.116;10.818;2023-04-06T08:01:10;2.90;99.90
41985;DHT22;28319;48.116;10.818;2023-04-06T08:06:12;3.00;99.90
41985;DHT22;28319;48.116;10.818;2023-04-06T08:11:15;3.20;99.90
41985;DHT22;28319;48.116;10.818;2023-04-06T08:16:19;3.50;99.90
41985;DHT22;28319;48.116;10.818;2023-04-06T08:21:22;3.60;99.90
41985;DHT22;28319;48.116;10.818;2023-04-06T08:26:24;3.80;99.90
41985;DHT22;28319;48.116;10.818;2023-04-06T08:31:28;4.00;99.90
41985;DHT22;28319;48.116;10.818;2023-04-06T08:36:32;4.10;99.90
41985;DHT22;28319;48.116;10.818;2023-04-06T08:41:37;4.30;99.90
41985;DHT22;28319;48.116;10.818;2023-04-06T08:46:40;4.60;99.00
41985;DHT22;28319;48.116;10.818;2023-04-06T08:51:43;4.70;99.90
41985;DHT22;28319;48.116;10.818;2023-04-06T08:56:47;4.80;99.20
41985;DHT22;28319;48.116;10.818;2023-04-06T09:01:51;5.00;99.80
41985;DHT22;28319;48.116;10.818;2023-04-06T09:06:55;5.10;99.50
41985;DHT22;28319;48.116;10.818;2023-04-06T09:11:57;5.20;99.50
41985;DHT22;28319;48.116;10.818;2023-04-06T09:17:07;5.50;98.80
41985;DHT22;28319;48.116;10.818;2023-04-06T09:22:09;5.60;98.10
41985;DHT22;28319;48.116;10.818;2023-04-06T09:27:12;6.00;98.00
41985;DHT22;28319;48.116;10.818;2023-04-06T09:32:15;6.40;97.40
41985;DHT22;28319;48.116;10.818;2023-04-06T09:37:19;6.80;97.30
41985;DHT22;28319;48.116;10.818;2023-04-06T09:42:24;7.00;97.40
41985;DHT22;28319;48.116;10.818;2023-04-06T09:47:30;7.20;95.90
41985;DHT22;28319;48.116;10.818;2023-04-06T09:52:36;7.70;96.10
41985;DHT22;28319;48.116;10.818;2023-04-06T09:57:49;8.00;94.10
41985;DHT22;28319;48.116;10.818;2023-04-06T10:02:58;8.30;94.40
41985;DHT22;28319;48.116;10.818;2023-04-06T10:08:05;8.40;94.50
41985;DHT22;28319;48.116;10.818;2023-04-06T10:13:10;8.90;94.70
41985;DHT22;28319;48.116;10.818;2023-04-06T10:18:15;9.30;95.00
41985;DHT22;28319;48.116;10.818;2023-04-06T10:23:21;9.70;84.30
41985;DHT22;28319;48.116;10.818;2023-04-06T10:28:24;10.00;81.80
41985;DHT22;28319;48.116;10.818;2023-04-06T10:33:28;10.20;81.30
41985;DHT22;28319;48.116;10.818;2023-04-06T10:38:34;10.40;81.40
41985;DHT22;28319;48.116;10.818;2023-04-06T10:43:37;10.60;81.60
41985;DHT22;28319;48.116;10.818;2023-04-06T10:48:42;10.80;81.30
41985;DHT22;28319;48.116;10.818;2023-04-06T10:53:46;11.10;76.40
41985;DHT22;28319;48.116;10.818;2023-04-06T10:58:51;11.00;73.60
41985;DHT22;28319;48.116;10.818;2023-04-06T11:03:58;11.00;76.10
41985;DHT22;28319;48.116;10.818;2023-04-06T11:09:00;11.60;71.60
41985;DHT22;28319;48.116;10.818;2023-04-06T11:14:02;12.00;72.60
41985;DHT22;28319;48.116;10.818;2023-04-06T11:19:06;12.00;69.70
41985;DHT22;28319;48.116;10.818;2023-04-06T11:24:09;12.40;72.70
41985;DHT22;28319;48.116;10.818;2023-04-06T11:29:13;12.60;73.00
41985;DHT22;28319;48.116;10.818;2023-04-06T11:34:18;12.50;68.30
41985;DHT22;28319;48.116;10.818;2023-04-06T11:39:23;11.70;70.30
41985;DHT22;28319;48.116;10.818;2023-04-06T11:44:32;11.10;70.40
41985;DHT22;28319;48.116;10.818;2023-04-06T11:49:40;12.10;67.70
41985;DHT22;28319;48.116;10.818;2023-04-06T11:54:42;11.60;68.40
41985;DHT22;28319;48.116;10.818;2023-04-06T11:59:45;12.10;69.40
41985;DHT22;28319;48.116;10.818;2023-04-06T12:04:49;12.60;66.00
41985;DHT22;28319;48.116;10.818;2023-04-06T12:09:51;12.70;67.60
41985;DHT22;28319;48.116;10.818;2023-04-06T12:14:53;12.30;66.70
41985;DHT22;28319;48.116;10.818;2023-04-06T12:19:57;12.20;64.90
41985;DHT22;28319;48.116;10.818;2023-04-06T12:24:59;12.40;64.20
41985;DHT22;28319;48.116;10.818;2023-04-06T12:30:02;12.70;66.00
41985;DHT22;28319;48.116;10.818;2023-04-06T12:35:06;13.30;65.10
41985;DHT22;28319;48.116;10.818;2023-04-06T12:40:10;13.10;62.60
41985;DHT22;28319;48.116;10.818;2023-04-06T12:45:13;13.10;64.60
41985;DHT22;28319;48.116;10.818;2023-04-06T12:50:17;13.30;61.50
41985;DHT22;28319;48.116;10.818;2023-04-06T12:55:19;13.50;61.00
41985;DHT22;28319;48.116;10.818;2023-04-06T13:00:23;13.80;58.00
41985;DHT22;28319;48.116;10.818;2023-04-06T13:05:27;14.00;58.60
41985;DHT22;28319;48.116;10.818;2023-04-06T13:10:29;13.70;58.60
41985;DHT22;28319;48.116;10.818;2023-04-06T13:15:31;13.60;58.00
41985;DHT22;28319;48.116;10.818;2023-04-06T13:20:37;14.00;60.00
41985;DHT22;28319;48.116;10.818;2023-04-06T13:25:39;14.00;62.00
41985;DHT22;28319;48.116;10.818;2023-04-06T13:30:42;13.70;61.90
41985;DHT22;28319;48.116;10.818;2023-04-06T13:35:46;13.60;60.00
41985;DHT22;28319;48.116;10.818;2023-04-06T13:40:49;13.70;61.60
41985;DHT22;28319;48.116;10.818;2023-04-06T13:45:52;13.90;62.40
41985;DHT22;28319;48.116;10.818;2023-04-06T13:50:57;13.50;60.00
41985;DHT22;28319;48.116;10.818;2023-04-06T13:56:01;14.00;60.20
41985;DHT22;28319;48.116;10.818;2023-04-06T14:01:04;13.80;62.60
41985;DHT22;28319;48.116;10.818;2023-04-06T14:06:13;13.90;60.00
41985;DHT22;28319;48.116;10.818;2023-04-06T14:11:15;13.50;59.00
41985;DHT22;28319;48.116;10.818;2023-04-06T14:16:17;13.40;57.80
41985;DHT22;28319;48.116;10.818;2023-04-06T14:21:21;13.40;59.90
41985;DHT22;28319;48.116;10.818;2023-04-06T14:26:27;13.00;57.90
41985;DHT22;28319;48.116;10.818;2023-04-06T14:31:29;12.70;57.90
41985;DHT22;28319;48.116;10.818;2023-04-06T14:36:33;12.70;58.70
41985;DHT22;28319;48.116;10.818;2023-04-06T14:41:37;12.90;59.60
41985;DHT22;28319;48.116;10.818;2023-04-06T14:46:40;12.60;58.40
41985;DHT22;28319;48.116;10.818;2023-04-06T14:51:44;12.90;60.60
41985;DHT22;28319;48.116;10.818;2023-04-06T14:56:46;12.80;59.30
41985;DHT22;28319;48.116;10.818;2023-04-06T15:01:47;12.60;59.40
41985;DHT22;28319;48.116;10.818;2023-04-06T15:06:51;12.50;57.00
41985;DHT22;28319;48.116;10.818;2023-04-06T15:11:53;12.50;57.90
41985;DHT22;28319;48.116;10.818;2023-04-06T15:16:56;12.50;58.00
41985;DHT22;28319;48.116;10.818;2023-04-06T15:22:00;12.20;60.60
41985;DHT22;28319;48.116;10.818;2023-04-06T15:27:02;11.90;58.60
41985;DHT22;28319;48.116;10.818;2023-04-06T15:32:04;12.10;60.40
41985;DHT22;28319;48.116;10.818;2023-04-06T15:37:08;12.40;63.90
41985;DHT22;28319;48.116;10.818;2023-04-06T15:42:10;12.40;59.50
41985;DHT22;28319;48.116;10.818;2023-04-06T15:47:12;12.30;58.60
41985;DHT22;28319;48.116;10.818;2023-04-06T15:52:17;12.20;60.70
41985;DHT22;28319;48.116;10.818;2023-04-06T15:57:19;12.20;59.00
41985;DHT22;28319;48.116;10.818;2023-04-06T16:02:21;11.90;59.50
41985;DHT22;28319;48.116;10.818;2023-04-06T16:07:26;11.60;58.30
41985;DHT22;28319;48.116;10.818;2023-04-06T16:12:28;11.60;60.30
41985;DHT22;28319;48.116;10.818;2023-04-06T16:17:33;11.60;62.40
41985;DHT22;28319;48.116;10.818;2023-04-06T16:22:37;11.60;60.40
41985;DHT22;28319;48.116;10.818;2023-04-06T16:27:39;11.50;61.70
41985;DHT22;28319;48.116;10.818;2023-04-06T16:32:42;11.50;61.00
41985;DHT22;28319;48.116;10.818;2023-04-06T16:37:48;11.50;61.40
41985;DHT22;28319;48.116;10.818;2023-04-06T16:42:50;11.30;61.40
41985;DHT22;28319;48.116;10.818;2023-04-06T16:47:52;11.10;61.90
41985;DHT22;28319;48.116;10.818;2023-04-06T16:52:58;11.00;62.60
41985;DHT22;28319;48.116;10.818;2023-04-06T16:58:01;11.00;62.80
41985;DHT22;28319;48.116;10.818;2023-04-06T17:03:04;10.90;63.30
41985;DHT22;28319;48.116;10.818;2023-04-06T17:08:07;11.00;63.60
41985;DHT22;28319;48.116;10.818;2023-04-06T17:13:09;11.10;66.00
41985;DHT22;28319;48.116;10.818;2023-04-06T17:18:11;10.70;65.30
41985;DHT22;28319;48.116;10.818;2023-04-06T17:23:15;10.60;65.10
41985;DHT22;28319;48.116;10.818;2023-04-06T17:28:18;10.50;66.80
41985;DHT22;28319;48.116;10.818;2023-04-06T17:33:20;10.70;66.90
41985;DHT22;28319;48.116;10.818;2023-04-06T17:38:24;10.60;69.00
41985;DHT22;28319;48.116;10.818;2023-04-06T17:43:26;10.60;70.00
41985;DHT22;28319;48.116;10.818;2023-04-06T17:48:28;10.70;71.70
41985;DHT22;28319;48.116;10.818;2023-04-06T17:53:33;10.80;73.90
41985;DHT22;28319;48.116;10.818;2023-04-06T17:58:36;10.50;74.10
41985;DHT22;28319;48.116;10.818;2023-04-06T18:03:38;10.30;75.50
41985;DHT22;28319;48.116;10.818;2023-04-06T18:08:42;10.10;76.20
41985;DHT22;28319;48.116;10.818;2023-04-06T18:13:44;9.80;76.80
41985;DHT22;28319;48.116;10.818;2023-04-06T18:18:46;9.60;78.30
41985;DHT22;28319;48.116;10.818;2023-04-06T18:23:50;9.60;78.90
41985;DHT22;28319;48.116;10.818;2023-04-06T18:28:52;9.50;79.50
41985;DHT22;28319;48.116;10.818;2023-04-06T18:33:55;9.30;80.00
41985;DHT22;28319;48.116;10.818;2023-04-06T18:38:58;9.20;80.60
41985;DHT22;28319;48.116;10.818;2023-04-06T18:44:01;9.00;81.50
41985;DHT22;28319;48.116;10.818;2023-04-06T18:49:03;8.80;82.10
41985;DHT22;28319;48.116;10.818;2023-04-06T18:54:08;8.80;82.80
41985;DHT22;28319;48.116;10.818;2023-04-06T18:59:13;8.70;83.80
41985;DHT22;28319;48.116;10.818;2023-04-06T19:04:16;8.70;84.10
41985;DHT22;28319;48.116;10.818;2023-04-06T19:09:20;8.60;84.90
41985;DHT22;28319;48.116;10.818;2023-04-06T19:14:22;8.50;86.40
41985;DHT22;28319;48.116;10.818;2023-04-06T19:19:24;8.40;88.40
41985;DHT22;28319;48.116;10.818;2023-04-06T19:24:28;8.40;88.20
41985;DHT22;28319;48.116;10.818;2023-04-06T19:29:30;8.20;88.20
41985;DHT22;28319;48.116;10.818;2023-04-06T19:34:33;8.20;89.00
41985;DHT22;28319;48.116;10.818;2023-04-06T19:39:36;8.30;89.20
41985;DHT22;28319;48.116;10.818;2023-04-06T19:44:39;8.30;90.20
41985;DHT22;28319;48.116;10.818;2023-04-06T19:49:42;8.00;90.10
41985;DHT22;28319;48.116;10.818;2023-04-06T19:54:45;8.00;90.10
41985;DHT22;28319;48.116;10.818;2023-04-06T19:59:48;7.70;90.00
41985;DHT22;28319;48.116;10.818;2023-04-06T20:04:50;7.70;90.50
41985;DHT22;28319;48.116;10.818;2023-04-06T20:09:54;7.70;90.50
41985;DHT22;28319;48.116;10.818;2023-04-06T20:14:56;7.70;90.90
41985;DHT22;28319;48.116;10.818;2023-04-06T20:19:58;7.70;90.50
41985;DHT22;28319;48.116;10.818;2023-04-06T20:25:03;7.50;91.10
41985;DHT22;28319;48.116;10.818;2023-04-06T20:30:06;7.60;91.30
41985;DHT22;28319;48.116;10.818;2023-04-06T20:35:08;7.70;92.00
41985;DHT22;28319;48.116;10.818;2023-04-06T20:40:12;7.70;93.10
41985;DHT22;28319;48.116;10.818;2023-04-06T20:45:15;7.70;92.50
41985;DHT22;28319;48.116;10.818;2023-04-06T20:50:17;7.50;93.10
41985;DHT22;28319;48.116;10.818;2023-04-06T20:55:21;7.60;92.60
41985;DHT22;28319;48.116;10.818;2023-04-06T21:00:23;7.60;92.70
41985;DHT22;28319;48.116;10.818;2023-04-06T21:05:25;7.70;92.60
41985;DHT22;28319;48.116;10.818;2023-04-06T21:10:29;7.60;92.60
41985;DHT22;28319;48.116;10.818;2023-04-06T21:15:31;7.60;92.50
41985;DHT22;28319;48.116;10.818;2023-04-06T21:20:33;7.50;92.10
41985;DHT22;28319;48.116;10.818;2023-04-06T21:25:38;7.50;92.60
41985;DHT22;28319;48.116;10.818;2023-04-06T21:30:41;7.40;93.30
41985;DHT22;28319;48.116;10.818;2023-04-06T21:35:43;7.30;93.30
41985;DHT22;28319;48.116;10.818;2023-04-06T21:40:54;7.30;93.70
41985;DHT22;28319;48.116;10.818;2023-04-06T21:45:56;7.30;93.70
41985;DHT22;28319;48.116;10.818;2023-04-06T21:50:58;7.40;94.00
41985;DHT22;28319;48.116;10.818;2023-04-06T21:56:02;7.40;94.00
41985;DHT22;28319;48.116;10.818;2023-04-06T22:01:08;7.40;94.30
41985;DHT22;28319;48.116;10.818;2023-04-06T22:06:11;7.40;94.60
41985;DHT22;28319;48.116;10.818;2023-04-06T22:11:14;7.50;94.30
41985;DHT22;28319;48.116;10.818;2023-04-06T22:16:16;7.20;93.90
41985;DHT22;28319;48.116;10.818;2023-04-06T22:21:19;7.20;93.70
41985;DHT22;28319;48.116;10.818;2023-04-06T22:26:23;7.40;94.00
41985;DHT22;28319;48.116;10.818;2023-04-06T22:31:25;7.20;94.30
41985;DHT22;28319;48.116;10.818;2023-04-06T22:36:27;7.10;94.70
41985;DHT22;28319;48.116;10.818;2023-04-06T22:41:31;7.00;94.70
41985;DHT22;28319;48.116;10.818;2023-04-06T22:46:33;7.10;95.10
41985;DHT22;28319;48.116;10.818;2023-04-06T22:51:35;6.90;95.10
41985;DHT22;28319;48.116;10.818;2023-04-06T22:56:42;6.80;95.70
41985;DHT22;28319;48.116;10.818;2023-04-06T23:01:44;6.60;96.00
41985;DHT22;28319;48.116;10.818;2023-04-06T23:06:46;6.60;96.20
41985;DHT22;28319;48.116;10.818;2023-04-06T23:11:49;6.50;96.50
41985;DHT22;28319;48.116;10.818;2023-04-06T23:16:51;6.40;96.60
41985;DHT22;28319;48.116;10.818;2023-04-06T23:21:53;6.40;96.90
41985;DHT22;28319;48.116;10.818;2023-04-06T23:26:58;6.40;96.80
41985;DHT22;28319;48.116;10.818;2023-04-06T23:32:00;6.30;96.90
41985;DHT22;28319;48.116;10.818;2023-04-06T23:37:02;6.30;96.20
41985;DHT22;28319;48.116;10.818;2023-04-06T23:42:06;6.20;97.00
41985;DHT22;28319;48.116;10.818;2023-04-06T23:47:08;6.10;97.30
41985;DHT22;28319;48.116;10.818;2023-04-06T23:52:11;6.10;96.90
41985;DHT22;28319;48.116;10.818;2023-04-06T23:57:14;6.10;97.30
